sensor_id;sensor_type;location;lat;lon;timestamp;pressure;altitude;pressure_sealevel;temperature;humidity
82986;BME280;72786;53.546;9.910;2024-03-02T00:00:30;99814.81;;;10.25;82.87
82986;BME280;72786;53.546;9.910;2024-03-02T00:02:56;99816.66;;;10.38;83.10
82986;BME280;72786;53.546;9.910;2024-03-02T00:05:23;99819.22;;;10.38;82.72
82986;BME280;72786;53.546;9.910;2024-03-02T00:07:54;99815.44;;;10.33;83.23
82986;BME280;72786;53.546;9.910;2024-03-02T00:10:26;99817.09;;;10.32;83.26
82986;BME280;72786;53.546;9.910;2024-03-02T00:12:56;99790.91;;;10.15;83.93
82986;BME280;72786;53.546;9.910;2024-03-02T00:15:45;99803.13;;;10.29;83.38
82986;BME280;72786;53.546;9.910;2024-03-02T00:18:14;99816.31;;;10.33;83.38
82986;BME280;72786;53.546;9.910;2024-03-02T00:20:42;99805.94;;;10.32;82.84
82986;BME280;72786;53.546;9.910;2024-03-02T00:23:10;99807.28;;;10.27;82.74
82986;BME280;72786;53.546;9.910;2024-03-02T00:25:41;99806.19;;;10.35;82.61
82986;BME280;72786;53.546;9.910;2024-03-02T00:33:19;99788.53;;;10.28;83.13
82986;BME280;72786;53.546;9.910;2024-03-02T00:35:47;99793.41;;;10.25;84.42
82986;BME280;72786;53.546;9.910;2024-03-02T00:38:15;99785.38;;;10.20;83.82
82986;BME280;72786;53.546;9.910;2024-03-02T00:40:42;99792.50;;;10.13;83.98
82986;BME280;72786;53.546;9.910;2024-03-02T00:43:31;99799.53;;;10.15;84.60
82986;BME280;72786;53.546;9.910;2024-03-02T00:46:01;99792.59;;;10.14;84.67
82986;BME280;72786;53.546;9.910;2024-03-02T00:48:28;99790.69;;;10.12;84.12
82986;BME280;72786;53.546;9.910;2024-03-02T00:50:57;99780.53;;;10.13;84.64
82986;BME280;72786;53.546;9.910;2024-03-02T00:53:26;99770.78;;;9.98;84.88
82986;BME280;72786;53.546;9.910;2024-03-02T00:55:52;99784.84;;;10.03;85.11
82986;BME280;72786;53.546;9.910;2024-03-02T00:58:19;99792.00;;;10.07;85.07
82986;BME280;72786;53.546;9.910;2024-03-02T01:00:45;99791.00;;;10.05;85.73
82986;BME280;72786;53.546;9.910;2024-03-02T01:03:12;99762.91;;;9.85;85.39
82986;BME280;72786;53.546;9.910;2024-03-02T01:05:42;99792.19;;;9.98;86.34
82986;BME280;72786;53.546;9.910;2024-03-02T01:08:09;99793.59;;;9.95;86.22
82986;BME280;72786;53.546;9.910;2024-03-02T01:10:36;99798.50;;;9.92;87.04
82986;BME280;72786;53.546;9.910;2024-03-02T01:13:03;99802.44;;;9.98;86.49
82986;BME280;72786;53.546;9.910;2024-03-02T01:15:29;99794.63;;;9.97;86.63
82986;BME280;72786;53.546;9.910;2024-03-02T01:17:55;99801.38;;;9.96;86.94
82986;BME280;72786;53.546;9.910;2024-03-02T01:20:22;99777.78;;;9.79;87.38
82986;BME280;72786;53.546;9.910;2024-03-02T01:22:48;99810.81;;;9.86;88.36
82986;BME280;72786;53.546;9.910;2024-03-02T01:25:15;99784.00;;;9.71;88.27
82986;BME280;72786;53.546;9.910;2024-03-02T01:27:41;99799.88;;;9.77;88.67
82986;BME280;72786;53.546;9.910;2024-03-02T01:30:08;99798.47;;;9.71;89.59
82986;BME280;72786;53.546;9.910;2024-03-02T01:32:35;99767.16;;;9.53;90.23
82986;BME280;72786;53.546;9.910;2024-03-02T01:35:01;99804.00;;;9.65;90.92
82986;BME280;72786;53.546;9.910;2024-03-02T01:37:28;99792.88;;;9.65;90.86
82986;BME280;72786;53.546;9.910;2024-03-02T01:39:54;99793.53;;;9.62;90.95
82986;BME280;72786;53.546;9.910;2024-03-02T01:42:21;99797.41;;;9.57;91.28
82986;BME280;72786;53.546;9.910;2024-03-02T01:44:48;99767.00;;;9.40;91.52
82986;BME280;72786;53.546;9.910;2024-03-02T01:47:15;99792.81;;;9.53;91.42
82986;BME280;72786;53.546;9.910;2024-03-02T01:49:42;99793.34;;;9.49;91.82
82986;BME280;72786;53.546;9.910;2024-03-02T01:52:08;99794.59;;;9.54;91.44
82986;BME280;72786;53.546;9.910;2024-03-02T01:54:35;99792.53;;;9.50;92.04
82986;BME280;72786;53.546;9.910;2024-03-02T01:57:01;99765.97;;;9.38;92.10
82986;BME280;72786;53.546;9.910;2024-03-02T01:59:28;99796.91;;;9.51;91.96
82986;BME280;72786;53.546;9.910;2024-03-02T02:01:54;99788.22;;;9.49;91.91
82986;BME280;72786;53.546;9.910;2024-03-02T02:04:21;99787.19;;;9.47;92.03
82986;BME280;72786;53.546;9.910;2024-03-02T02:06:53;99777.75;;;9.36;92.50
82986;BME280;72786;53.546;9.910;2024-03-02T02:09:20;99754.75;;;9.26;92.78
82986;BME280;72786;53.546;9.910;2024-03-02T02:11:47;99775.81;;;9.44;91.84
82986;BME280;72786;53.546;9.910;2024-03-02T02:14:13;99781.59;;;9.41;91.73
82986;BME280;72786;53.546;9.910;2024-03-02T02:16:40;99777.47;;;9.43;91.97
82986;BME280;72786;53.546;9.910;2024-03-02T02:19:06;99764.66;;;9.43;91.43
82986;BME280;72786;53.546;9.910;2024-03-02T02:21:32;99769.78;;;9.43;91.66
82986;BME280;72786;53.546;9.910;2024-03-02T02:23:59;99764.81;;;9.35;91.77
82986;BME280;72786;53.546;9.910;2024-03-02T02:26:25;99760.84;;;9.38;91.16
82986;BME280;72786;53.546;9.910;2024-03-02T02:28:52;99705.41;;;9.07;91.63
82986;BME280;72786;53.546;9.910;2024-03-02T02:31:18;99758.56;;;9.31;92.35
82986;BME280;72786;53.546;9.910;2024-03-02T02:33:45;99749.84;;;9.29;92.51
82986;BME280;72786;53.546;9.910;2024-03-02T02:36:11;99757.91;;;9.34;91.67
82986;BME280;72786;53.546;9.910;2024-03-02T02:38:40;99748.31;;;9.31;91.80
82986;BME280;72786;53.546;9.910;2024-03-02T02:41:09;99753.06;;;9.27;91.80
82986;BME280;72786;53.546;9.910;2024-03-02T02:43:35;99750.78;;;9.30;91.69
82986;BME280;72786;53.546;9.910;2024-03-02T02:46:02;99746.13;;;9.36;91.44
82986;BME280;72786;53.546;9.910;2024-03-02T02:48:28;99751.44;;;9.27;91.45
82986;BME280;72786;53.546;9.910;2024-03-02T02:50:55;99744.50;;;9.26;91.64
82986;BME280;72786;53.546;9.910;2024-03-02T02:53:21;99696.22;;;9.00;91.37
82986;BME280;72786;53.546;9.910;2024-03-02T02:55:48;99751.66;;;9.30;91.40
82986;BME280;72786;53.546;9.910;2024-03-02T02:58:14;99751.28;;;9.26;91.41
82986;BME280;72786;53.546;9.910;2024-03-02T03:00:41;99753.72;;;9.24;91.18
82986;BME280;72786;53.546;9.910;2024-03-02T03:03:07;99749.63;;;9.26;91.31
82986;BME280;72786;53.546;9.910;2024-03-02T03:05:34;99746.53;;;9.30;91.68
82986;BME280;72786;53.546;9.910;2024-03-02T03:08:00;99721.91;;;9.11;91.99
82986;BME280;72786;53.546;9.910;2024-03-02T03:10:27;99708.97;;;9.09;91.73
82986;BME280;72786;53.546;9.910;2024-03-02T03:12:54;99721.75;;;9.19;91.22
82986;BME280;72786;53.546;9.910;2024-03-02T03:15:22;99739.38;;;9.26;91.08
82986;BME280;72786;53.546;9.910;2024-03-02T03:17:49;99719.47;;;9.12;91.39
82986;BME280;72786;53.546;9.910;2024-03-02T03:20:17;99712.06;;;9.05;91.50
82986;BME280;72786;53.546;9.910;2024-03-02T03:22:43;99750.03;;;9.21;91.17
82986;BME280;72786;53.546;9.910;2024-03-02T03:25:10;99738.13;;;9.21;91.13
82986;BME280;72786;53.546;9.910;2024-03-02T03:27:37;99743.59;;;9.26;90.88
82986;BME280;72786;53.546;9.910;2024-03-02T03:30:04;99752.41;;;9.29;91.14
82986;BME280;72786;53.546;9.910;2024-03-02T03:32:32;99736.47;;;9.22;91.48
82986;BME280;72786;53.546;9.910;2024-03-02T03:34:58;99729.31;;;9.18;90.99
82986;BME280;72786;53.546;9.910;2024-03-02T03:37:25;99740.25;;;9.27;91.12
82986;BME280;72786;53.546;9.910;2024-03-02T03:39:53;99719.69;;;9.15;90.25
82986;BME280;72786;53.546;9.910;2024-03-02T03:42:20;99742.72;;;9.25;91.02
82986;BME280;72786;53.546;9.910;2024-03-02T03:44:47;99742.72;;;9.25;90.80
82986;BME280;72786;53.546;9.910;2024-03-02T03:47:13;99741.94;;;9.26;91.01
82986;BME280;72786;53.546;9.910;2024-03-02T03:49:39;99743.47;;;9.24;90.72
82986;BME280;72786;53.546;9.910;2024-03-02T03:52:06;99704.09;;;9.12;90.69
82986;BME280;72786;53.546;9.910;2024-03-02T03:54:32;99736.81;;;9.26;90.68
82986;BME280;72786;53.546;9.910;2024-03-02T03:56:59;99741.19;;;9.27;90.32
82986;BME280;72786;53.546;9.910;2024-03-02T03:59:25;99734.28;;;9.16;91.18
82986;BME280;72786;53.546;9.910;2024-03-02T04:01:52;99735.31;;;9.18;91.08
82986;BME280;72786;53.546;9.910;2024-03-02T04:04:19;99733.78;;;9.20;91.19
82986;BME280;72786;53.546;9.910;2024-03-02T04:06:46;99730.69;;;9.24;90.50
82986;BME280;72786;53.546;9.910;2024-03-02T04:09:12;99725.94;;;9.19;90.47
82986;BME280;72786;53.546;9.910;2024-03-02T04:11:39;99730.19;;;9.18;90.51
82986;BME280;72786;53.546;9.910;2024-03-02T04:14:05;99724.81;;;9.15;91.09
82986;BME280;72786;53.546;9.910;2024-03-02T04:16:32;99732.09;;;9.21;90.62
82986;BME280;72786;53.546;9.910;2024-03-02T04:18:59;99676.56;;;8.89;90.62
82986;BME280;72786;53.546;9.910;2024-03-02T04:21:25;99724.97;;;9.17;91.12
82986;BME280;72786;53.546;9.910;2024-03-02T04:23:52;99727.53;;;9.17;90.49
82986;BME280;72786;53.546;9.910;2024-03-02T04:26:18;99728.66;;;9.20;90.27
82986;BME280;72786;53.546;9.910;2024-03-02T04:28:48;99732.78;;;9.08;90.89
82986;BME280;72786;53.546;9.910;2024-03-02T04:31:15;99737.03;;;9.08;90.44
82986;BME280;72786;53.546;9.910;2024-03-02T04:33:42;99733.22;;;9.03;91.13
82986;BME280;72786;53.546;9.910;2024-03-02T04:36:09;99732.56;;;9.05;90.90
82986;BME280;72786;53.546;9.910;2024-03-02T04:38:36;99728.50;;;8.98;90.87
82986;BME280;72786;53.546;9.910;2024-03-02T04:41:04;99752.78;;;9.02;91.03
82986;BME280;72786;53.546;9.910;2024-03-02T04:43:32;99747.94;;;9.05;90.71
82986;BME280;72786;53.546;9.910;2024-03-02T04:45:59;99737.69;;;9.05;90.41
82986;BME280;72786;53.546;9.910;2024-03-02T04:48:26;99748.78;;;9.16;90.33
82986;BME280;72786;53.546;9.910;2024-03-02T04:50:53;99697.19;;;8.90;90.01
82986;BME280;72786;53.546;9.910;2024-03-02T04:53:20;99748.78;;;9.16;90.20
82986;BME280;72786;53.546;9.910;2024-03-02T04:55:46;99751.34;;;9.16;90.39
82986;BME280;72786;53.546;9.910;2024-03-02T04:58:38;99740.44;;;9.18;90.28
82986;BME280;72786;53.546;9.910;2024-03-02T05:01:05;99735.31;;;9.18;89.68
82986;BME280;72786;53.546;9.910;2024-03-02T05:03:31;99719.22;;;9.09;89.65
82986;BME280;72786;53.546;9.910;2024-03-02T05:06:01;99723.56;;;9.10;89.66
82986;BME280;72786;53.546;9.910;2024-03-02T05:08:27;99712.47;;;9.00;89.75
82986;BME280;72786;53.546;9.910;2024-03-02T05:10:53;99722.53;;;9.08;90.05
82986;BME280;72786;53.546;9.910;2024-03-02T05:13:20;99735.59;;;9.11;89.49
82986;BME280;72786;53.546;9.910;2024-03-02T05:15:47;99733.16;;;9.13;89.78
82986;BME280;72786;53.546;9.910;2024-03-02T05:18:13;99730.00;;;9.05;89.86
82986;BME280;72786;53.546;9.910;2024-03-02T05:20:40;99739.03;;;9.12;89.21
82986;BME280;72786;53.546;9.910;2024-03-02T05:23:06;99722.72;;;9.00;89.48
82986;BME280;72786;53.546;9.910;2024-03-02T05:25:33;99743.28;;;9.11;89.56
82986;BME280;72786;53.546;9.910;2024-03-02T05:28:01;99742.81;;;9.05;89.61
82986;BME280;72786;53.546;9.910;2024-03-02T05:30:27;99744.59;;;9.06;89.75
82986;BME280;72786;53.546;9.910;2024-03-02T05:32:54;99709.97;;;8.90;90.36
82986;BME280;72786;53.546;9.910;2024-03-02T05:35:20;99741.75;;;9.13;89.59
82986;BME280;72786;53.546;9.910;2024-03-02T05:37:47;99739.41;;;9.16;89.16
82986;BME280;72786;53.546;9.910;2024-03-02T05:40:13;99713.38;;;9.01;89.04
82986;BME280;72786;53.546;9.910;2024-03-02T05:42:40;99740.19;;;9.15;88.79
82986;BME280;72786;53.546;9.910;2024-03-02T05:45:08;99733.03;;;9.11;88.93
82986;BME280;72786;53.546;9.910;2024-03-02T05:47:34;99747.09;;;9.16;88.57
82986;BME280;72786;53.546;9.910;2024-03-02T05:50:01;99738.16;;;9.11;88.70
82986;BME280;72786;53.546;9.910;2024-03-02T05:52:27;99717.75;;;8.92;89.21
82986;BME280;72786;53.546;9.910;2024-03-02T05:54:54;99737.44;;;9.02;89.01
82986;BME280;72786;53.546;9.910;2024-03-02T05:57:20;99742.53;;;9.02;89.35
82986;BME280;72786;53.546;9.910;2024-03-02T06:00:06;99739.00;;;9.01;89.34
82986;BME280;72786;53.546;9.910;2024-03-02T06:02:41;99736.72;;;8.94;88.99
82986;BME280;72786;53.546;9.910;2024-03-02T06:05:07;99749.63;;;8.95;89.43
82986;BME280;72786;53.546;9.910;2024-03-02T06:07:34;99748.00;;;8.86;89.92
82986;BME280;72786;53.546;9.910;2024-03-02T06:10:00;99749.25;;;8.81;90.10
82986;BME280;72786;53.546;9.910;2024-03-02T06:12:27;99753.63;;;8.82;90.34
82986;BME280;72786;53.546;9.910;2024-03-02T06:14:53;99749.25;;;8.81;89.70
82986;BME280;72786;53.546;9.910;2024-03-02T06:17:20;99748.53;;;8.72;90.47
82986;BME280;72786;53.546;9.910;2024-03-02T06:19:46;99746.75;;;8.71;90.29
82986;BME280;72786;53.546;9.910;2024-03-02T06:22:13;99749.97;;;8.68;90.48
82986;BME280;72786;53.546;9.910;2024-03-02T06:24:39;99691.94;;;8.47;89.84
82986;BME280;72786;53.546;9.910;2024-03-02T06:27:05;99713.25;;;8.58;90.55
82986;BME280;72786;53.546;9.910;2024-03-02T06:29:33;99742.13;;;8.77;89.56
82986;BME280;72786;53.546;9.910;2024-03-02T06:32:00;99743.00;;;8.77;89.64
82986;BME280;72786;53.546;9.910;2024-03-02T06:34:26;99740.59;;;8.79;89.92
82986;BME280;72786;53.546;9.910;2024-03-02T06:36:52;99744.19;;;8.71;89.88
82986;BME280;72786;53.546;9.910;2024-03-02T06:39:19;99749.03;;;8.78;89.84
82986;BME280;72786;53.546;9.910;2024-03-02T06:41:45;99742.63;;;8.83;89.40
82986;BME280;72786;53.546;9.910;2024-03-02T06:44:13;99740.59;;;8.79;89.81
82986;BME280;72786;53.546;9.910;2024-03-02T06:46:39;99735.22;;;8.76;89.58
82986;BME280;72786;53.546;9.910;2024-03-02T06:49:06;99746.06;;;8.83;89.34
82986;BME280;72786;53.546;9.910;2024-03-02T06:51:33;99755.53;;;8.84;89.25
82986;BME280;72786;53.546;9.910;2024-03-02T06:54:00;99709.34;;;8.73;90.07
82986;BME280;72786;53.546;9.910;2024-03-02T06:56:27;99746.94;;;8.94;89.75
82986;BME280;72786;53.546;9.910;2024-03-02T06:58:53;99747.56;;;8.91;89.72
82986;BME280;72786;53.546;9.910;2024-03-02T07:01:19;99769.72;;;8.91;89.32
82986;BME280;72786;53.546;9.910;2024-03-02T07:03:50;99772.28;;;8.91;89.03
82986;BME280;72786;53.546;9.910;2024-03-02T07:06:16;99779.72;;;8.88;90.09
82986;BME280;72786;53.546;9.910;2024-03-02T07:08:43;99783.84;;;8.86;89.41
82986;BME280;72786;53.546;9.910;2024-03-02T07:11:09;99780.47;;;8.87;89.09
82986;BME280;72786;53.546;9.910;2024-03-02T07:13:36;99736.41;;;8.59;89.26
82986;BME280;72786;53.546;9.910;2024-03-02T07:16:02;99789.19;;;8.89;89.09
82986;BME280;72786;53.546;9.910;2024-03-02T07:18:29;99785.47;;;8.85;89.92
82986;BME280;72786;53.546;9.910;2024-03-02T07:20:59;99773.06;;;8.80;89.54
82986;BME280;72786;53.546;9.910;2024-03-02T07:23:27;99789.94;;;8.98;89.37
82986;BME280;72786;53.546;9.910;2024-03-02T07:25:54;99788.13;;;8.97;89.42
82986;BME280;72786;53.546;9.910;2024-03-02T07:28:26;99787.22;;;9.06;88.95
82986;BME280;72786;53.546;9.910;2024-03-02T07:31:03;99793.19;;;9.16;89.08
82986;BME280;72786;53.546;9.910;2024-03-02T07:33:31;99802.16;;;9.21;88.49
82986;BME280;72786;53.546;9.910;2024-03-02T07:35:59;99799.34;;;9.18;88.84
82986;BME280;72786;53.546;9.910;2024-03-02T07:38:31;99794.50;;;9.21;88.32
82986;BME280;72786;53.546;9.910;2024-03-02T07:40:58;99804.97;;;9.24;88.11
82986;BME280;72786;53.546;9.910;2024-03-02T07:43:25;99805.72;;;9.23;88.25
82986;BME280;72786;53.546;9.910;2024-03-02T07:45:52;99808.53;;;9.26;87.96
82986;BME280;72786;53.546;9.910;2024-03-02T07:48:19;99814.16;;;9.22;87.70
82986;BME280;72786;53.546;9.910;2024-03-02T07:50:45;99813.28;;;9.22;87.08
82986;BME280;72786;53.546;9.910;2024-03-02T07:53:12;99814.91;;;9.31;86.97
82986;BME280;72786;53.546;9.910;2024-03-02T07:55:39;99817.00;;;9.25;87.54
82986;BME280;72786;53.546;9.910;2024-03-02T07:58:06;99824.41;;;9.22;87.71
82986;BME280;72786;53.546;9.910;2024-03-02T08:00:32;99818.81;;;9.16;87.22
82986;BME280;72786;53.546;9.910;2024-03-02T08:03:00;99817.25;;;9.28;87.41
82986;BME280;72786;53.546;9.910;2024-03-02T08:05:27;99802.69;;;9.17;87.53
82986;BME280;72786;53.546;9.910;2024-03-02T08:07:53;99828.00;;;9.34;87.31
82986;BME280;72786;53.546;9.910;2024-03-02T08:10:20;99820.81;;;9.30;87.07
82986;BME280;72786;53.546;9.910;2024-03-02T08:12:46;99826.19;;;9.33;87.44
82986;BME280;72786;53.546;9.910;2024-03-02T08:15:13;99826.09;;;9.32;87.38
82986;BME280;72786;53.546;9.910;2024-03-02T08:17:40;99829.81;;;9.25;87.21
82986;BME280;72786;53.546;9.910;2024-03-02T08:20:14;99820.03;;;9.31;86.61
82986;BME280;72786;53.546;9.910;2024-03-02T08:22:41;99831.25;;;9.43;87.07
82986;BME280;72786;53.546;9.910;2024-03-02T08:25:08;99836.38;;;9.43;86.31
82986;BME280;72786;53.546;9.910;2024-03-02T08:27:34;99831.91;;;9.41;86.50
82986;BME280;72786;53.546;9.910;2024-03-02T08:30:02;99813.38;;;9.33;86.56
82986;BME280;72786;53.546;9.910;2024-03-02T08:32:33;99837.53;;;9.47;86.31
82986;BME280;72786;53.546;9.910;2024-03-02T08:34:59;99833.81;;;9.53;86.37
82986;BME280;72786;53.546;9.910;2024-03-02T08:37:26;99818.16;;;9.50;85.62
82986;BME280;72786;53.546;9.910;2024-03-02T08:39:52;99845.03;;;9.65;85.59
82986;BME280;72786;53.546;9.910;2024-03-02T08:42:19;99845.75;;;9.74;85.39
82986;BME280;72786;53.546;9.910;2024-03-02T08:44:46;99840.28;;;9.91;85.32
82986;BME280;72786;53.546;9.910;2024-03-02T08:47:12;99847.34;;;10.15;84.41
82986;BME280;72786;53.546;9.910;2024-03-02T08:49:40;99855.25;;;10.39;84.35
82986;BME280;72786;53.546;9.910;2024-03-02T08:52:07;99821.84;;;10.49;82.98
82986;BME280;72786;53.546;9.910;2024-03-02T08:54:33;99815.97;;;10.61;82.02
82986;BME280;72786;53.546;9.910;2024-03-02T08:57:02;99840.38;;;11.01;81.63
82986;BME280;72786;53.546;9.910;2024-03-02T08:59:28;99832.34;;;11.08;80.91
82986;BME280;72786;53.546;9.910;2024-03-02T09:01:55;99833.25;;;11.31;80.28
82986;BME280;72786;53.546;9.910;2024-03-02T09:04:21;99834.25;;;11.33;80.62
82986;BME280;72786;53.546;9.910;2024-03-02T09:06:52;99849.47;;;11.53;79.28
82986;BME280;72786;53.546;9.910;2024-03-02T09:09:18;99836.63;;;11.53;78.79
82986;BME280;72786;53.546;9.910;2024-03-02T09:11:46;99840.72;;;11.51;79.01
82986;BME280;72786;53.546;9.910;2024-03-02T09:14:13;99850.78;;;11.71;77.95
82986;BME280;72786;53.546;9.910;2024-03-02T09:16:41;99810.22;;;11.67;77.30
82986;BME280;72786;53.546;9.910;2024-03-02T09:19:07;99843.63;;;11.90;76.55
82986;BME280;72786;53.546;9.910;2024-03-02T09:21:34;99844.47;;;12.02;76.50
82986;BME280;72786;53.546;9.910;2024-03-02T09:24:00;99846.63;;;11.96;76.90
82986;BME280;72786;53.546;9.910;2024-03-02T09:26:29;99849.06;;;11.94;76.80
82986;BME280;72786;53.546;9.910;2024-03-02T09:28:55;99857.69;;;11.95;76.93
82986;BME280;72786;53.546;9.910;2024-03-02T09:31:22;99855.91;;;11.94;75.99
82986;BME280;72786;53.546;9.910;2024-03-02T09:33:48;99806.94;;;11.81;75.23
82986;BME280;72786;53.546;9.910;2024-03-02T09:36:19;99844.28;;;12.23;76.08
82986;BME280;72786;53.546;9.910;2024-03-02T09:38:46;99846.66;;;12.44;75.49
82986;BME280;72786;53.546;9.910;2024-03-02T09:41:14;99846.75;;;12.70;73.90
82986;BME280;72786;53.546;9.910;2024-03-02T09:43:40;99840.97;;;12.85;73.40
82986;BME280;72786;53.546;9.910;2024-03-02T09:46:09;99828.63;;;12.93;73.33
82986;BME280;72786;53.546;9.910;2024-03-02T09:48:36;99859.97;;;13.25;72.19
82986;BME280;72786;53.546;9.910;2024-03-02T09:51:04;99856.06;;;13.43;72.16
82986;BME280;72786;53.546;9.910;2024-03-02T09:53:32;99845.72;;;13.43;70.07
82986;BME280;72786;53.546;9.910;2024-03-02T09:56:00;99847.03;;;13.49;71.43
82986;BME280;72786;53.546;9.910;2024-03-02T09:58:27;99837.38;;;13.47;71.04
82986;BME280;72786;53.546;9.910;2024-03-02T10:00:53;99841.66;;;13.46;71.77
82986;BME280;72786;53.546;9.910;2024-03-02T10:03:22;99852.75;;;13.58;69.92
82986;BME280;72786;53.546;9.910;2024-03-02T10:05:49;99855.66;;;13.62;69.37
82986;BME280;72786;53.546;9.910;2024-03-02T10:08:15;99858.41;;;13.78;69.50
82986;BME280;72786;53.546;9.910;2024-03-02T10:10:42;99805.75;;;13.49;69.67
82986;BME280;72786;53.546;9.910;2024-03-02T10:13:11;99856.41;;;14.00;68.54
82986;BME280;72786;53.546;9.910;2024-03-02T10:15:39;99826.22;;;13.99;68.74
82986;BME280;72786;53.546;9.910;2024-03-02T10:18:09;99847.09;;;14.02;66.95
82986;BME280;72786;53.546;9.910;2024-03-02T10:20:38;99845.53;;;13.78;69.27
82986;BME280;72786;53.546;9.910;2024-03-02T10:23:15;99838.00;;;13.56;68.71
82986;BME280;72786;53.546;9.910;2024-03-02T10:25:44;99820.72;;;13.29;69.27
82986;BME280;72786;53.546;9.910;2024-03-02T10:28:23;99840.88;;;13.34;69.30
82986;BME280;72786;53.546;9.910;2024-03-02T10:30:49;99848.91;;;13.39;68.99
82986;BME280;72786;53.546;9.910;2024-03-02T10:33:18;99850.88;;;13.56;68.43
82986;BME280;72786;53.546;9.910;2024-03-02T10:35:44;99853.84;;;13.74;67.56
82986;BME280;72786;53.546;9.910;2024-03-02T10:38:11;99854.25;;;13.93;65.59
82986;BME280;72786;53.546;9.910;2024-03-02T10:40:38;99829.00;;;13.89;65.59
82986;BME280;72786;53.546;9.910;2024-03-02T10:43:04;99862.16;;;14.09;64.54
82986;BME280;72786;53.546;9.910;2024-03-02T10:45:34;99830.09;;;14.06;65.34
82986;BME280;72786;53.546;9.910;2024-03-02T10:48:02;99860.94;;;14.17;64.40
82986;BME280;72786;53.546;9.910;2024-03-02T10:50:29;99852.41;;;14.18;64.41
82986;BME280;72786;53.546;9.910;2024-03-02T10:52:56;99858.19;;;13.88;64.69
82986;BME280;72786;53.546;9.910;2024-03-02T10:55:22;99855.63;;;14.01;64.44
82986;BME280;72786;53.546;9.910;2024-03-02T10:57:54;99830.25;;;14.09;65.22
82986;BME280;72786;53.546;9.910;2024-03-02T11:00:25;99862.75;;;14.18;63.53
82986;BME280;72786;53.546;9.910;2024-03-02T11:02:57;99860.13;;;14.31;63.32
82986;BME280;72786;53.546;9.910;2024-03-02T11:05:28;99831.88;;;14.20;65.31
82986;BME280;72786;53.546;9.910;2024-03-02T11:08:01;99837.34;;;13.98;64.97
82986;BME280;72786;53.546;9.910;2024-03-02T11:10:37;99863.03;;;14.23;64.21
82986;BME280;72786;53.546;9.910;2024-03-02T11:13:05;99863.13;;;14.24;63.97
82986;BME280;72786;53.546;9.910;2024-03-02T11:15:35;99864.97;;;14.39;63.23
82986;BME280;72786;53.546;9.910;2024-03-02T11:18:06;99864.06;;;14.39;62.04
82986;BME280;72786;53.546;9.910;2024-03-02T11:20:39;99847.06;;;14.42;63.57
82986;BME280;72786;53.546;9.910;2024-03-02T11:23:07;99868.22;;;14.50;63.23
82986;BME280;72786;53.546;9.910;2024-03-02T11:25:34;99867.00;;;14.58;63.81
82986;BME280;72786;53.546;9.910;2024-03-02T11:28:07;99875.97;;;14.50;63.33
82986;BME280;72786;53.546;9.910;2024-03-02T11:33:06;99872.91;;;14.42;61.84
82986;BME280;72786;53.546;9.910;2024-03-02T11:35:41;99855.66;;;14.29;61.61
82986;BME280;72786;53.546;9.910;2024-03-02T11:38:15;99853.00;;;14.27;61.48
82986;BME280;72786;53.546;9.910;2024-03-02T11:40:42;99859.25;;;14.31;62.32
82986;BME280;72786;53.546;9.910;2024-03-02T11:43:09;99871.59;;;14.49;61.74
82986;BME280;72786;53.546;9.910;2024-03-02T11:45:37;99872.19;;;14.45;61.28
82986;BME280;72786;53.546;9.910;2024-03-02T11:48:11;99873.97;;;14.46;60.05
82986;BME280;72786;53.546;9.910;2024-03-02T11:50:42;99878.56;;;14.50;60.06
82986;BME280;72786;53.546;9.910;2024-03-02T11:53:09;99874.97;;;14.48;61.79
82986;BME280;72786;53.546;9.910;2024-03-02T11:55:40;99875.63;;;14.58;62.55
82986;BME280;72786;53.546;9.910;2024-03-02T11:58:14;99875.91;;;14.63;62.07
82986;BME280;72786;53.546;9.910;2024-03-02T12:00:44;99855.03;;;14.60;62.91
82986;BME280;72786;53.546;9.910;2024-03-02T12:03:13;99875.44;;;14.55;62.12
82986;BME280;72786;53.546;9.910;2024-03-02T12:05:39;99876.44;;;14.57;60.24
82986;BME280;72786;53.546;9.910;2024-03-02T12:08:07;99861.63;;;14.55;61.10
82986;BME280;72786;53.546;9.910;2024-03-02T12:10:35;99855.38;;;14.51;60.56
82986;BME280;72786;53.546;9.910;2024-03-02T12:13:04;99857.59;;;14.73;61.91
82986;BME280;72786;53.546;9.910;2024-03-02T12:15:34;99867.22;;;14.75;61.12
82986;BME280;72786;53.546;9.910;2024-03-02T12:18:03;99859.91;;;14.83;61.45
82986;BME280;72786;53.546;9.910;2024-03-02T12:20:32;99857.69;;;14.89;60.67
82986;BME280;72786;53.546;9.910;2024-03-02T12:22:59;99828.53;;;14.77;60.47
82986;BME280;72786;53.546;9.910;2024-03-02T12:25:26;99857.97;;;14.79;60.88
82986;BME280;72786;53.546;9.910;2024-03-02T12:27:54;99842.44;;;14.79;60.98
82986;BME280;72786;53.546;9.910;2024-03-02T12:30:22;99848.13;;;14.73;61.07
82986;BME280;72786;53.546;9.910;2024-03-02T12:32:49;99843.13;;;14.62;61.60
82986;BME280;72786;53.546;9.910;2024-03-02T12:35:15;99845.97;;;14.39;61.48
82986;BME280;72786;53.546;9.910;2024-03-02T12:37:45;99841.25;;;14.32;63.73
82986;BME280;72786;53.546;9.910;2024-03-02T12:40:12;99830.75;;;14.29;62.56
82986;BME280;72786;53.546;9.910;2024-03-02T12:42:40;99822.00;;;14.27;63.73
82986;BME280;72786;53.546;9.910;2024-03-02T12:45:08;99846.63;;;14.35;62.68
82986;BME280;72786;53.546;9.910;2024-03-02T12:47:35;99853.31;;;14.46;63.68
82986;BME280;72786;53.546;9.910;2024-03-02T12:50:03;99850.34;;;14.40;62.24
82986;BME280;72786;53.546;9.910;2024-03-02T12:52:30;99832.91;;;14.36;64.36
82986;BME280;72786;53.546;9.910;2024-03-02T12:54:59;99838.78;;;14.34;63.68
82986;BME280;72786;53.546;9.910;2024-03-02T12:57:26;99820.41;;;14.29;63.85
82986;BME280;72786;53.546;9.910;2024-03-02T13:00:00;99808.75;;;14.35;63.22
82986;BME280;72786;53.546;9.910;2024-03-02T13:02:30;99797.97;;;14.28;62.56
82986;BME280;72786;53.546;9.910;2024-03-02T13:04:58;99838.47;;;14.56;62.27
82986;BME280;72786;53.546;9.910;2024-03-02T13:07:25;99811.28;;;14.21;62.61
82986;BME280;72786;53.546;9.910;2024-03-02T13:09:52;99840.03;;;14.40;62.77
82986;BME280;72786;53.546;9.910;2024-03-02T13:12:23;99835.56;;;14.37;62.59
82986;BME280;72786;53.546;9.910;2024-03-02T13:14:53;99834.06;;;14.41;62.20
82986;BME280;72786;53.546;9.910;2024-03-02T13:17:20;99839.94;;;14.38;62.83